Saint Médard d'Aunis (17)                     Février 2024                                  
  Température (°C) - Abri Young à ventilation mécanique 43502 (moy/6min)  Davis 7714 (moy/1min) Humidité Vent Davis /2,5s (km/h) Gill /0,25s Gill /3s Précipitations (mm) Pression (hPa) Divers  
Date Maxi USCRN /6min Mini  USCRN /6min Moy de 1440 relevés Moy (tx+tn)/2 Index chaleur moyen Index chaleur maxi Froid dû au vent moy/6min  Froid dû au vent mini/6min   Amplitude (tx-tn) Tx OMM/1min Tn OMM/1min Moy de 1440 relevés Moy (tx+tn)/2 Relative maxi Relative mini Relative moy de 1440 relevés Relative moy (hx+hn)/2 Point de rosée maxi Point de rosée mini Point de rosée moy 1440 relevés Vent moy maxi (10min) Vent  moyen (24h) Direction dominante Rafales (km/h) maxi Direction rafale maxi Rafales moy (24h) Rafales    (km/h)    maxi     norme MF Rafales    (km/h)    maxi     norme OMM Total du jour (mm) Durée en heures et dixièmes Intensité maxi sur 1 min (mm/h) Maxi Mini Moy de 1440 relevés Moy (px+pn)/2 Variation Epaisseur neige (cm) Ensoleillement (h:min:s) Remarques diverses    
01/02/2024 14,2 7,6 10,55 10,90 10,73 14,2 9,56 6,3 6,6 14,2 7,7 10,57 10,95 97% 91% 95,0% 94,0% 13,4 7,1 9,78 22,98 8,82 WNW 29,0 W 11,13 31,29 29,54 0,8 0,3 12,0 1037,7 1035,5 1036,34 1036,60 2,2   0:05:57 Brouillard, ciel entre 7/8 et 8/8  
02/02/2024 10,6 5,4 9,35 7,99 9,61 10,8 9,28 5,4 5,2 10,6 5,6 9,38 8,10 97% 95% 96,1% 96,0% 9,9 4,7 8,77 8,69 2,64 NNE 12,9 NW 3,84 13,86 12,92 0,2 0,1 12,0 1038,0 1035,7 1036,74 1036,85 2,3   0:00:00 Brume, traces de précipitations, ciel 8/8  
03/02/2024 8,5 6,6 7,69 7,52 7,84 8,7 6,69 4,5 1,9 8,3 6,7 7,68 7,50 96% 93% 95,4% 94,5% 7,8 5,8 7,00 13,86 6,69 NE 20,9 NNE 9,27 22,50 21,42 0,0 0,0 0,0 1035,8 1033,9 1034,73 1034,85 1,9   0:00:00 Brouillard, ciel 8/8  
04/02/2024 9,0 7,6 8,14 8,29 8,22 9,1 7,57 5,1 1,4 9,1 7,6 8,17 8,35 94% 86% 89,6% 90,0% 7,1 5,9 6,54 11,62 5,08 NE 17,7 NNE 7,09 20,81 18,58 0,0 0,0 0,0 1034,8 1032,9 1033,81 1033,85 1,9   0:00:00 Ciel 8/8  
05/02/2024 7,8 6,3 7,06 7,05 7,12 7,8 6,08 3,8 1,5 7,8 6,4 7,07 7,10 95% 88% 91,0% 91,5% 6,6 4,8 5,69 15,30 6,33 SSE 24,1 S 8,71 24,52 23,09 0,0 0,0 0,0 1033,0 1027,9 1030,18 1030,45 5,1   0:00:00 Ciel 8/8, traces de précipitations  
06/02/2024 13,1 7,1 9,56 10,08 9,68 13,1 8,12 4,1 6,0 13,7 7,1 9,60 10,40 95% 84% 92,8% 89,5% 11,5 6,3 8,45 15,46 10,06 SSW 24,1 S 13,68 28,22 25,42 0,0 0,0 0,0 1028,3 1021,1 1024,66 1024,70 7,2   0:51:43 Ciel entre 7/8 et 8/8  
07/02/2024 13,2 10,5 11,73 11,84 11,86 13,3 8,64 6,4 2,7 13,2 10,6 11,73 11,90 96% 90% 93,3% 93,0% 12,5 9,3 10,69 30,76 21,50 SSW 51,5 S 29,44 50,15 44,66 8,6 3,5 12,0 1021,1 1009,3 1014,38 1015,20 11,8   0:00:00 Ciel 8/8, pluie  
08/02/2024 13,7 11,2 12,39 12,45 12,42 13,6 9,25 7,0 2,5 13,8 11,2 12,39 12,50 96% 79% 90,4% 87,5% 12,3 9,3 10,81 41,84 23,04 S 69,2 S 31,35 67,00 59,60 4,0 1,4 12,0 1009,7 990,5 999,51 1000,10 19,2   0:00:00 Ciel 8/8, pluie  
09/02/2024 14,1 10,0 11,95 12,03 12,05 14,2 9,49 7,7 4,1 14,1 10,2 11,96 12,15 95% 85% 91,6% 90,0% 12,9 9,0 10,62 31,87 17,81 S 56,3 S 23,76 52,78 46,84 8,0 2,5 12,0 990,5 983,5 986,84 987,00 7,0   3:28:59 Ciel entre 6/8 et 8/8, pluie  
10/02/2024 13,1 8,7 10,39 10,90 10,47 12,7 7,00 3,6 4,4 13,2 8,6 10,38 10,90 95% 72% 88,1% 83,5% 10,0 5,9 8,45 49,74 23,62 WSW 64,4 W 28,42 67,25 61,59 20,4 5,3 24,0 993,7 983,3 988,52 988,50 10,4   4:28:36 Ciel entre 4/8 et 8/8, pluie, averses  
11/02/2024 13,5 5,1 9,25 9,27 9,25 13,2 5,89 3,1 8,4 13,5 5,1 9,23 9,30 94% 76% 86,3% 85,0% 9,9 4,0 7,04 47,95 23,67 W 69,2 W 29,08 69,48 67,17 2,0 0,8 12,0 1004,6 993,8 1000,79 999,20 10,8   5:25:35 Ciel entre 4/8 et 8/8, averses le matin  
12/02/2024 11,4 2,4 7,26 6,89 7,34 11,4 5,32 0,3 9,0 11,3 1,8 7,23 6,55 95% 83% 92,4% 89,0% 9,6 1,5 6,10 21,06 11,12 ENE 32,2 E 14,77 34,24 31,72 13,6 5,0 12,0 1019,6 1001,7 1009,36 1010,65 17,9   2:41:19 Ciel 8/8 à 6/8, pluie le matin  
13/02/2024 12,1 2,0 7,91 7,06 8,00 12,1 5,68 0,2 10,1 12,1 2,0 7,91 7,05 96% 84% 93,5% 90,0% 10,5 1,3 6,92 25,08 13,00 SE 33,8 SSE 16,54 33,91 31,44 1,8 0,8 12,0 1022,0 1018,5 1019,84 1020,25 3,5   1:01:40 Ciel 6/8 à 8/8, pluie dans l'après-midi  
14/02/2024 18,9 6,8 12,07 12,87 12,19 19,1 10,95 4,7 12,1 19,0 6,8 12,10 12,90 96% 69% 89,2% 82,5% 13,9 6,2 10,25 21,38 10,49 S 29,0 S 13,55 28,40 25,99 0,4 0,2 12,0 1022,8 1016,1 1020,58 1019,45 6,7   7:23:27 Ciel 6/8 à 2/8  
15/02/2024 16,8 10,5 13,65 13,66 13,59 16,7 11,33 7,8 6,3 16,8 10,6 13,67 13,70 92% 74% 83,3% 83,0% 12,7 8,5 10,84 24,93 18,06 SE 40,2 ESE 23,35 41,51 35,95 0,0 0,0 0,0 1016,2 1008,2 1011,44 1012,20 8,0   2:31:39 Ciel 6/8 à 7/8  
16/02/2024 15,3 4,7 11,37 10,02 11,36 15,0 8,36 3,2 10,6 15,4 4,7 11,38 10,05 95% 71% 87,9% 83,0% 12,0 3,7 9,36 37,00 21,15 WNW 54,7 W 26,07 57,60 52,55 1,0 0,4 12,0 1030,2 1012,6 1021,89 1021,40 17,6   3:58:10 Ciel 8/8 à 6/8, averses le matin  
17/02/2024 15,1 1,4 7,31 8,27 7,33 14,8 7,16 0,4 13,7 16,0 1,3 7,43 8,65 96% 66% 89,7% 81,0% 12,8 0,7 5,66 15,30 3,41 WNW 19,3 W 4,66 19,26 18,81 0,0 0,0 0,0 1035,6 1030,2 1033,86 1032,90 5,4   6:38:03 Ciel entre 3/8 et 6/8  
18/02/2024 13,1 3,5 9,31 8,32 9,45 13,2 7,97 2,0 9,6 13,2 3,3 9,33 8,25 96% 93% 95,2% 94,5% 12,1 2,9 8,59 19,62 10,17 SSW 30,6 S 13,45 29,20 26,99 2,6 1,1 12,0 1035,5 1033,1 1034,26 1034,30 2,4   0:07:21 Ciel entre 7/8 et 8/8, pluie l'après-midi  
19/02/2024 11,5 6,8 9,79 9,15 9,94 11,6 8,47 5,1 4,7 11,6 6,9 9,79 9,25 97% 83% 92,5% 90,0% 10,8 6,2 8,60 22,02 9,64 W 30,6 W 11,97 32,36 29,01 0,2 0,1 12,0 1037,6 1035,0 1036,02 1036,30 2,6   0:22:18 Ciel entre 7/8 et 8/8  
20/02/2024 14,0 4,2 9,75 9,10 9,80 13,6 9,37 3,8 9,8 14,4 4,0 9,86 9,20 94% 71% 88,7% 82,5% 10,5 3,4 7,90 14,34 5,09 W 19,3 NW 6,77 20,16 18,79 0,0 0,0 0,0 1035,5 1027,5 1032,60 1031,50 8,0   2:20:11 Ciel entre 6/8 et 8/8  
                                                                                 
                                                                                 
                                                                                 
                                                                                 
                                                                                 
                                                                                 
                                                                                 
                                                                                 
                                                                                 
                                                                                 
                                                                                 
  Température (°C) - Abri Young à ventilation mécanique 43502 (moy/6min)  Davis 7714 (moy/1min) Humidité Vent Davis (km/h) Gill /0,25s Gill /3s Précipitations (mm) Pression (hPa) Divers  
PT1000 Maxi USCRN /6min Mini  USCRN /6min Moy de 1440 relevés Moy (tx+tn)/2 Index chaleur moyen Index chaleur maxi Froid dû au vent moy/6min  Froid dû au vent mini/6min   Amplitude (tx-tn) Tx OMM/1min Tn OMM/1min Moy de 1440 relevés Moy (tx+tn)/2 Relative maxi Relative mini Relative moy de 1440 relevés Relative moy (hx+hn)/2 Point de rosée maxi Point de rosée mini Point de rosée moy 1440 relevés Vent moy maxi (10min) Vent  moyen (24h) Direction dominante Rafales (km/h) maxi Direction rafale maxi Rafales moy (24h) Rafales    (km/h)    maxi     norme MF Rafales    (km/h)    maxi     norme OMM Total du jour (mm) Durée en heures et dixièmes Intensité maxi sur 1 min (mm/h) Maxi Mini Moy de 1440 relevés Moy (px+pn)/2 Variation Epaisseur neige (cm) Ensoleillement (h:min:s) Remarques diverses  
Maxi 18,9 11,2 13,65 13,66 13,59 19,1 11,33 7,8 13,7 19,0 11,2 13,67 13,70 97% 95% 96,1% 96,0% 13,9 9,3 10,84 49,74 23,67 S 69,2 S 31,35 69,48 67,17 20,4 5,3 24,0 1038,0 1035,7 1036,74 1036,85 19,2 0,0 7:23:27    
Mini 7,8 1,4 7,06 6,89 7,12 7,8 5,32 0,2 1,4 7,8 1,3 7,07 6,55 92% 66% 83,3% 81,0% 6,6 0,7 5,66 8,69 2,64   12,9   3,84 13,86 12,92       990,5 983,3 986,84 987,00 1,9        
Moy 12,95 6,42 9,82 9,68 9,91 12,91 8,11 4,23 6,53 13,07 6,41 9,84 9,74 95,4% 81,7% 91,1% 88,5% 10,94 5,33 8,40 24,54 12,57   36,45   16,35 37,23 34,1       1024,11 1016,52 1020,32 1020,31 7,59        
Total                                                         63,6 21,4             0,0 41:24:58    
   
Observations    
Jours Rafales >= 36,0 km/h Rafales >= 57,6 km/h Rafales >= 75,6 km/h Rafales >= 100,8 km/h Précipi. >= 0,1 mm Précipi. >= 1,0 mm Précipi. >= 5,0 mm Précipi. >= 10,0 mm Tx <= 0 Tx <= -5 Tx <= -10 Tx >= 20 Tx >= 25 Tx >= 30 Tx >= 35 Tx >= 40 Tn <= 0 Tn <= -5 Tn <= -10 Tn <= -15 Tn <= -20 T moy <= 0 T moy <=     -5 T moy <=     -10 T moy >= 20 T moy >= 25 T moy >= 30 Grêle Grésil Brouillard Brume Orage Neige        
01/02/2024 0 0 0 0 1 0 0 0 0 0 0 0 0 0 0 0 0 0 0 0 0 0 0 0 0 0 0 0 0 1 0 0 0    
02/02/2024 0 0 0 0 1 0 0 0 0 0 0 0 0 0 0 0 0 0 0 0 0 0 0 0 0 0 0 0 0 0 1 0 0    
03/02/2024 0 0 0 0 0 0 0 0 0 0 0 0 0 0 0 0 0 0 0 0 0 0 0 0 0 0 0 0 0 1 0 0 0    
04/02/2024 0 0 0 0 0 0 0 0 0 0 0 0 0 0 0 0 0 0 0 0 0 0 0 0 0 0 0 0 0 0 0 0 0    
05/02/2024 0 0 0 0 0 0 0 0 0 0 0 0 0 0 0 0 0 0 0 0 0 0 0 0 0 0 0 0 0 0 0 0 0    
06/02/2024 0 0 0 0 0 0 0 0 0 0 0 0 0 0 0 0 0 0 0 0 0 0 0 0 0 0 0 0 0 0 0 0 0    
07/02/2024 1 0 0 0 1 1 1 0 0 0 0 0 0 0 0 0 0 0 0 0 0 0 0 0 0 0 0 0 0 0 0 0 0    
08/02/2024 1 1 0 0 1 1 0 0 0 0 0 0 0 0 0 0 0 0 0 0 0 0 0 0 0 0 0 0 0 0 0 0 0    
09/02/2024 1 0 0 0 1 1 1 0 0 0 0 0 0 0 0 0 0 0 0 0 0 0 0 0 0 0 0 0 0 0 0 0 0    
10/02/2024 1 1 0 0 1 1 1 1 0 0 0 0 0 0 0 0 0 0 0 0 0 0 0 0 0 0 0 0 0 0 0 0 0    
11/02/2024 1 1 0 0 1 1 0 0 0 0 0 0 0 0 0 0 0 0 0 0 0 0 0 0 0 0 0 0 0 0 0 0 0    
12/02/2024 0 0 0 0 1 1 1 1 0 0 0 0 0 0 0 0 0 0 0 0 0 0 0 0 0 0 0 0 0 0 0 0 0    
13/02/2024 0 0 0 0 1 1 0 0 0 0 0 0 0 0 0 0 0 0 0 0 0 0 0 0 0 0 0 0 0 0 0 0 0    
14/02/2024 0 0 0 0 1 0 0 0 0 0 0 0 0 0 0 0 0 0 0 0 0 0 0 0 0 0 0 0 0 0 0 0 0    
15/02/2024 1 0 0 0 0 0 0 0 0 0 0 0 0 0 0 0 0 0 0 0 0 0 0 0 0 0 0 0 0 0 0 0 0    
16/02/2024 1 0 0 0 1 1 0 0 0 0 0 0 0 0 0 0 0 0 0 0 0 0 0 0 0 0 0 0 0 0 0 0 0    
17/02/2024 0 0 0 0 0 0 0 0 0 0 0 0 0 0 0 0 0 0 0 0 0 0 0 0 0 0 0 0 0 0 0 0 0    
18/02/2024 0 0 0 0 1 1 0 0 0 0 0 0 0 0 0 0 0 0 0 0 0 0 0 0 0 0 0 0 0 0 0 0 0    
19/02/2024 0 0 0 0 1 0 0 0 0 0 0 0 0 0 0 0 0 0 0 0 0 0 0 0 0 0 0 0 0 0 0 0 0    
20/02/2024 0 0 0 0 0 0 0 0 0 0 0 0 0 0 0 0 0 0 0 0 0 0 0 0 0 0 0 0 0 0 0 0 0    
                                                                       
                                                                       
                                                                       
                                                                       
                                                                       
                                                                       
                                                                       
                                                                       
                                                                           
                                                                       
                                                                       
   
  Rafales >= 36,0 km/h Rafales >= 57,6 km/h Rafales >= 75,6 km/h Rafales >= 100,8 km/h Précipi. >= 0,1 mm Précipi. >= 1,0 mm Précipi. >= 5,0 mm Précipi. >= 10,0 mm Tx <=0 Tx <= -5 Tx <= -10 Tx >= 20 Tx >= 25 Tx >= 30 Tx >= 35 Tx >= 40 Tn <= 0 Tn <= -5 Tn <= -10 Tn <= -15 Tn <= -20 T moy <= 0 T moy <=  -5 T moy <=  -10 T moy >= 20 T moy >= 25 T moy >= 30 Grêle Grésil Brouillard Brume Orage Neige        
Total 7 3 0 0 13 9 4 2 0 0 0 0 0 0 0 0 0 0 0 0 0 0 0 0 0 0 0 0 0 2 1 0 0